sensor_id;sensor_type;location;lat;lon;timestamp;P1;durP1;ratioP1;P2;durP2;ratioP2
67762;SDS011;54566;52.022;5.582;2023-08-30T00:00:45;8.00;;;5.55;;
67762;SDS011;54566;52.022;5.582;2023-08-30T00:03:11;9.77;;;5.90;;
67762;SDS011;54566;52.022;5.582;2023-08-30T00:05:41;10.30;;;6.22;;
67762;SDS011;54566;52.022;5.582;2023-08-30T00:08:07;12.45;;;5.03;;
67762;SDS011;54566;52.022;5.582;2023-08-30T00:10:34;9.43;;;6.25;;
67762;SDS011;54566;52.022;5.582;2023-08-30T00:13:00;9.77;;;5.40;;
67762;SDS011;54566;52.022;5.582;2023-08-30T00:15:27;7.38;;;5.20;;
67762;SDS011;54566;52.022;5.582;2023-08-30T00:17:53;7.93;;;5.95;;
67762;SDS011;54566;52.022;5.582;2023-08-30T00:20:19;8.75;;;5.43;;
67762;SDS011;54566;52.022;5.582;2023-08-30T00:22:47;10.45;;;5.70;;
67762;SDS011;54566;52.022;5.582;2023-08-30T00:25:16;11.77;;;5.60;;
67762;SDS011;54566;52.022;5.582;2023-08-30T00:27:42;9.73;;;5.43;;
67762;SDS011;54566;52.022;5.582;2023-08-30T00:30:08;8.75;;;5.35;;
67762;SDS011;54566;52.022;5.582;2023-08-30T00:32:35;9.10;;;5.65;;
67762;SDS011;54566;52.022;5.582;2023-08-30T00:35:01;8.50;;;5.43;;
67762;SDS011;54566;52.022;5.582;2023-08-30T00:37:27;7.93;;;5.85;;
67762;SDS011;54566;52.022;5.582;2023-08-30T00:39:53;6.72;;;5.57;;
67762;SDS011;54566;52.022;5.582;2023-08-30T00:42:19;9.38;;;5.57;;
67762;SDS011;54566;52.022;5.582;2023-08-30T00:44:45;9.18;;;5.68;;
67762;SDS011;54566;52.022;5.582;2023-08-30T00:47:11;12.70;;;6.28;;
67762;SDS011;54566;52.022;5.582;2023-08-30T00:49:37;9.93;;;5.80;;
67762;SDS011;54566;52.022;5.582;2023-08-30T00:52:06;9.52;;;6.35;;
67762;SDS011;54566;52.022;5.582;2023-08-30T00:54:33;8.43;;;5.70;;
67762;SDS011;54566;52.022;5.582;2023-08-30T00:57:00;9.13;;;5.70;;
67762;SDS011;54566;52.022;5.582;2023-08-30T00:59:29;10.57;;;6.07;;
67762;SDS011;54566;52.022;5.582;2023-08-30T01:01:55;7.88;;;5.25;;
67762;SDS011;54566;52.022;5.582;2023-08-30T01:04:21;13.10;;;6.72;;
67762;SDS011;54566;52.022;5.582;2023-08-30T01:06:48;10.93;;;5.88;;
67762;SDS011;54566;52.022;5.582;2023-08-30T01:09:14;13.43;;;6.28;;
67762;SDS011;54566;52.022;5.582;2023-08-30T01:11:52;9.77;;;6.20;;
67762;SDS011;54566;52.022;5.582;2023-08-30T01:14:25;8.65;;;5.85;;
67762;SDS011;54566;52.022;5.582;2023-08-30T01:16:55;10.20;;;6.60;;
67762;SDS011;54566;52.022;5.582;2023-08-30T01:21:50;9.65;;;5.97;;
67762;SDS011;54566;52.022;5.582;2023-08-30T01:24:29;9.13;;;6.50;;
67762;SDS011;54566;52.022;5.582;2023-08-30T01:29:27;9.57;;;6.30;;
67762;SDS011;54566;52.022;5.582;2023-08-30T01:31:57;11.10;;;5.88;;
67762;SDS011;54566;52.022;5.582;2023-08-30T01:34:32;10.15;;;6.72;;
67762;SDS011;54566;52.022;5.582;2023-08-30T01:36:59;10.23;;;6.32;;
67762;SDS011;54566;52.022;5.582;2023-08-30T01:39:25;8.93;;;6.13;;
67762;SDS011;54566;52.022;5.582;2023-08-30T01:41:52;13.55;;;6.45;;
67762;SDS011;54566;52.022;5.582;2023-08-30T01:44:24;8.85;;;6.30;;
67762;SDS011;54566;52.022;5.582;2023-08-30T01:46:50;8.55;;;5.93;;
67762;SDS011;54566;52.022;5.582;2023-08-30T01:49:16;10.85;;;6.80;;
67762;SDS011;54566;52.022;5.582;2023-08-30T01:51:42;8.25;;;6.18;;
67762;SDS011;54566;52.022;5.582;2023-08-30T01:54:08;10.20;;;6.20;;
67762;SDS011;54566;52.022;5.582;2023-08-30T01:56:37;9.40;;;6.45;;
67762;SDS011;54566;52.022;5.582;2023-08-30T01:59:03;9.98;;;6.32;;
67762;SDS011;54566;52.022;5.582;2023-08-30T02:01:29;9.85;;;6.78;;
67762;SDS011;54566;52.022;5.582;2023-08-30T02:03:55;9.68;;;6.72;;
67762;SDS011;54566;52.022;5.582;2023-08-30T02:06:21;11.60;;;6.45;;
67762;SDS011;54566;52.022;5.582;2023-08-30T02:09:01;12.02;;;7.68;;
67762;SDS011;54566;52.022;5.582;2023-08-30T02:11:29;11.48;;;6.60;;
67762;SDS011;54566;52.022;5.582;2023-08-30T02:13:57;14.20;;;7.77;;
67762;SDS011;54566;52.022;5.582;2023-08-30T02:16:23;12.68;;;6.82;;
67762;SDS011;54566;52.022;5.582;2023-08-30T02:18:51;12.18;;;7.15;;
67762;SDS011;54566;52.022;5.582;2023-08-30T02:21:18;11.15;;;7.97;;
67762;SDS011;54566;52.022;5.582;2023-08-30T02:23:44;10.75;;;7.45;;
67762;SDS011;54566;52.022;5.582;2023-08-30T02:26:10;14.60;;;8.23;;
67762;SDS011;54566;52.022;5.582;2023-08-30T02:28:36;10.45;;;7.72;;
67762;SDS011;54566;52.022;5.582;2023-08-30T02:31:03;11.77;;;8.00;;
67762;SDS011;54566;52.022;5.582;2023-08-30T02:33:29;12.45;;;8.50;;
67762;SDS011;54566;52.022;5.582;2023-08-30T02:35:55;13.00;;;8.60;;
67762;SDS011;54566;52.022;5.582;2023-08-30T02:38:21;13.48;;;8.85;;
67762;SDS011;54566;52.022;5.582;2023-08-30T02:40:47;15.35;;;8.38;;
67762;SDS011;54566;52.022;5.582;2023-08-30T02:43:13;15.00;;;8.45;;
67762;SDS011;54566;52.022;5.582;2023-08-30T02:45:39;14.10;;;8.45;;
67762;SDS011;54566;52.022;5.582;2023-08-30T02:48:05;10.68;;;7.78;;
67762;SDS011;54566;52.022;5.582;2023-08-30T02:50:31;14.00;;;8.32;;
67762;SDS011;54566;52.022;5.582;2023-08-30T02:52:57;12.85;;;8.52;;
67762;SDS011;54566;52.022;5.582;2023-08-30T02:55:23;11.75;;;8.48;;
67762;SDS011;54566;52.022;5.582;2023-08-30T02:57:49;12.15;;;8.75;;
67762;SDS011;54566;52.022;5.582;2023-08-30T03:00:16;12.65;;;8.65;;
67762;SDS011;54566;52.022;5.582;2023-08-30T03:02:42;13.98;;;8.35;;
67762;SDS011;54566;52.022;5.582;2023-08-30T03:05:08;12.75;;;8.88;;
67762;SDS011;54566;52.022;5.582;2023-08-30T03:07:34;14.65;;;8.35;;
67762;SDS011;54566;52.022;5.582;2023-08-30T03:10:00;12.57;;;8.10;;
67762;SDS011;54566;52.022;5.582;2023-08-30T03:12:26;13.80;;;8.57;;
67762;SDS011;54566;52.022;5.582;2023-08-30T03:14:52;15.15;;;7.97;;
67762;SDS011;54566;52.022;5.582;2023-08-30T03:17:18;14.85;;;8.68;;
67762;SDS011;54566;52.022;5.582;2023-08-30T03:19:44;16.30;;;8.73;;
67762;SDS011;54566;52.022;5.582;2023-08-30T03:22:10;15.27;;;8.45;;
67762;SDS011;54566;52.022;5.582;2023-08-30T03:24:36;16.73;;;7.93;;
67762;SDS011;54566;52.022;5.582;2023-08-30T03:27:02;14.70;;;8.00;;
67762;SDS011;54566;52.022;5.582;2023-08-30T03:29:28;17.33;;;8.02;;
67762;SDS011;54566;52.022;5.582;2023-08-30T03:31:55;12.43;;;8.40;;
67762;SDS011;54566;52.022;5.582;2023-08-30T03:34:21;11.90;;;8.57;;
67762;SDS011;54566;52.022;5.582;2023-08-30T03:36:47;14.38;;;7.82;;
67762;SDS011;54566;52.022;5.582;2023-08-30T03:39:19;12.15;;;7.70;;
67762;SDS011;54566;52.022;5.582;2023-08-30T03:41:45;12.15;;;7.72;;
67762;SDS011;54566;52.022;5.582;2023-08-30T03:44:11;12.85;;;7.72;;
67762;SDS011;54566;52.022;5.582;2023-08-30T03:46:37;13.25;;;7.82;;
67762;SDS011;54566;52.022;5.582;2023-08-30T03:49:03;13.90;;;7.75;;
67762;SDS011;54566;52.022;5.582;2023-08-30T03:51:29;12.35;;;7.93;;
67762;SDS011;54566;52.022;5.582;2023-08-30T03:53:55;15.63;;;8.10;;
67762;SDS011;54566;52.022;5.582;2023-08-30T03:56:22;16.20;;;7.68;;
67762;SDS011;54566;52.022;5.582;2023-08-30T03:58:48;14.18;;;8.00;;
67762;SDS011;54566;52.022;5.582;2023-08-30T04:01:14;15.52;;;7.90;;
67762;SDS011;54566;52.022;5.582;2023-08-30T04:03:40;14.90;;;8.43;;
67762;SDS011;54566;52.022;5.582;2023-08-30T04:06:06;19.00;;;7.88;;
67762;SDS011;54566;52.022;5.582;2023-08-30T04:08:32;13.88;;;8.60;;
67762;SDS011;54566;52.022;5.582;2023-08-30T04:10:58;14.15;;;8.27;;
67762;SDS011;54566;52.022;5.582;2023-08-30T04:13:24;14.00;;;9.00;;
67762;SDS011;54566;52.022;5.582;2023-08-30T04:15:50;14.75;;;8.65;;
67762;SDS011;54566;52.022;5.582;2023-08-30T04:18:17;17.40;;;8.48;;
67762;SDS011;54566;52.022;5.582;2023-08-30T04:20:46;15.40;;;9.25;;
67762;SDS011;54566;52.022;5.582;2023-08-30T04:23:13;14.57;;;8.65;;
67762;SDS011;54566;52.022;5.582;2023-08-30T04:25:39;16.88;;;8.85;;
67762;SDS011;54566;52.022;5.582;2023-08-30T04:28:06;12.18;;;8.48;;
67762;SDS011;54566;52.022;5.582;2023-08-30T04:30:32;14.13;;;8.48;;
67762;SDS011;54566;52.022;5.582;2023-08-30T04:32:58;16.90;;;9.38;;
67762;SDS011;54566;52.022;5.582;2023-08-30T04:35:26;15.55;;;9.40;;
67762;SDS011;54566;52.022;5.582;2023-08-30T04:37:52;18.90;;;9.02;;
67762;SDS011;54566;52.022;5.582;2023-08-30T04:40:18;13.65;;;8.40;;
67762;SDS011;54566;52.022;5.582;2023-08-30T04:42:44;15.98;;;8.65;;
67762;SDS011;54566;52.022;5.582;2023-08-30T04:45:10;16.13;;;9.13;;
67762;SDS011;54566;52.022;5.582;2023-08-30T04:47:36;15.15;;;8.55;;
67762;SDS011;54566;52.022;5.582;2023-08-30T04:50:02;16.63;;;10.05;;
67762;SDS011;54566;52.022;5.582;2023-08-30T04:52:29;15.90;;;9.82;;
67762;SDS011;54566;52.022;5.582;2023-08-30T04:54:58;19.85;;;9.90;;
67762;SDS011;54566;52.022;5.582;2023-08-30T04:57:24;13.48;;;9.60;;
67762;SDS011;54566;52.022;5.582;2023-08-30T04:59:50;16.77;;;9.50;;
67762;SDS011;54566;52.022;5.582;2023-08-30T05:02:16;15.75;;;8.88;;
67762;SDS011;54566;52.022;5.582;2023-08-30T05:04:43;16.95;;;9.63;;
67762;SDS011;54566;52.022;5.582;2023-08-30T05:07:09;15.77;;;8.82;;
67762;SDS011;54566;52.022;5.582;2023-08-30T05:09:35;14.65;;;9.52;;
67762;SDS011;54566;52.022;5.582;2023-08-30T05:12:09;18.80;;;9.90;;
67762;SDS011;54566;52.022;5.582;2023-08-30T05:18:14;19.60;;;11.10;;
67762;SDS011;54566;52.022;5.582;2023-08-30T05:20:40;15.32;;;10.48;;
67762;SDS011;54566;52.022;5.582;2023-08-30T05:23:06;15.77;;;8.95;;
67762;SDS011;54566;52.022;5.582;2023-08-30T05:25:32;18.38;;;10.02;;
67762;SDS011;54566;52.022;5.582;2023-08-30T05:27:58;16.85;;;9.23;;
67762;SDS011;54566;52.022;5.582;2023-08-30T05:30:25;22.80;;;9.48;;
67762;SDS011;54566;52.022;5.582;2023-08-30T05:32:51;20.00;;;9.63;;
67762;SDS011;54566;52.022;5.582;2023-08-30T05:35:18;15.50;;;8.60;;
67762;SDS011;54566;52.022;5.582;2023-08-30T05:37:44;14.75;;;9.30;;
67762;SDS011;54566;52.022;5.582;2023-08-30T05:40:10;13.70;;;9.00;;
67762;SDS011;54566;52.022;5.582;2023-08-30T05:42:40;18.27;;;9.48;;
67762;SDS011;54566;52.022;5.582;2023-08-30T05:45:06;16.30;;;9.02;;
67762;SDS011;54566;52.022;5.582;2023-08-30T05:47:33;14.38;;;9.18;;
67762;SDS011;54566;52.022;5.582;2023-08-30T05:49:59;12.80;;;8.40;;
67762;SDS011;54566;52.022;5.582;2023-08-30T05:52:25;13.90;;;9.02;;
67762;SDS011;54566;52.022;5.582;2023-08-30T05:54:51;18.92;;;9.30;;
67762;SDS011;54566;52.022;5.582;2023-08-30T05:57:18;14.15;;;8.90;;
67762;SDS011;54566;52.022;5.582;2023-08-30T05:59:44;16.83;;;9.73;;
67762;SDS011;54566;52.022;5.582;2023-08-30T06:02:10;15.38;;;8.32;;
67762;SDS011;54566;52.022;5.582;2023-08-30T06:04:36;14.23;;;9.32;;
67762;SDS011;54566;52.022;5.582;2023-08-30T06:07:02;15.10;;;9.13;;
67762;SDS011;54566;52.022;5.582;2023-08-30T06:09:28;14.13;;;8.98;;
67762;SDS011;54566;52.022;5.582;2023-08-30T06:11:54;16.70;;;9.43;;
67762;SDS011;54566;52.022;5.582;2023-08-30T06:14:21;18.05;;;9.70;;
67762;SDS011;54566;52.022;5.582;2023-08-30T06:16:47;18.45;;;9.35;;
67762;SDS011;54566;52.022;5.582;2023-08-30T06:19:14;24.02;;;9.27;;
67762;SDS011;54566;52.022;5.582;2023-08-30T06:21:40;20.70;;;8.48;;
67762;SDS011;54566;52.022;5.582;2023-08-30T06:24:06;15.77;;;9.43;;
67762;SDS011;54566;52.022;5.582;2023-08-30T06:26:32;19.25;;;9.32;;
67762;SDS011;54566;52.022;5.582;2023-08-30T06:28:58;23.00;;;8.95;;
67762;SDS011;54566;52.022;5.582;2023-08-30T06:31:24;15.32;;;8.75;;
67762;SDS011;54566;52.022;5.582;2023-08-30T06:33:51;16.75;;;8.80;;
67762;SDS011;54566;52.022;5.582;2023-08-30T06:36:17;19.92;;;8.50;;
67762;SDS011;54566;52.022;5.582;2023-08-30T06:38:43;15.93;;;8.82;;
67762;SDS011;54566;52.022;5.582;2023-08-30T06:41:09;14.13;;;8.23;;
67762;SDS011;54566;52.022;5.582;2023-08-30T06:43:35;16.50;;;8.05;;
67762;SDS011;54566;52.022;5.582;2023-08-30T06:46:01;15.13;;;8.65;;
67762;SDS011;54566;52.022;5.582;2023-08-30T06:48:27;17.85;;;8.35;;
67762;SDS011;54566;52.022;5.582;2023-08-30T06:50:56;23.08;;;8.52;;
67762;SDS011;54566;52.022;5.582;2023-08-30T06:53:22;20.40;;;9.50;;
67762;SDS011;54566;52.022;5.582;2023-08-30T06:55:56;17.23;;;9.05;;
67762;SDS011;54566;52.022;5.582;2023-08-30T06:58:22;19.70;;;9.18;;
67762;SDS011;54566;52.022;5.582;2023-08-30T07:00:48;17.10;;;9.68;;
67762;SDS011;54566;52.022;5.582;2023-08-30T07:03:14;21.42;;;9.80;;
67762;SDS011;54566;52.022;5.582;2023-08-30T07:05:40;16.67;;;9.57;;
67762;SDS011;54566;52.022;5.582;2023-08-30T07:08:08;20.35;;;10.30;;
67762;SDS011;54566;52.022;5.582;2023-08-30T07:10:34;19.30;;;9.93;;
67762;SDS011;54566;52.022;5.582;2023-08-30T07:13:00;23.02;;;9.35;;
67762;SDS011;54566;52.022;5.582;2023-08-30T07:15:26;18.05;;;10.00;;
67762;SDS011;54566;52.022;5.582;2023-08-30T07:17:52;17.23;;;10.15;;
67762;SDS011;54566;52.022;5.582;2023-08-30T07:20:20;17.33;;;9.32;;
67762;SDS011;54566;52.022;5.582;2023-08-30T07:22:46;23.33;;;9.57;;
67762;SDS011;54566;52.022;5.582;2023-08-30T07:25:12;22.85;;;11.25;;
67762;SDS011;54566;52.022;5.582;2023-08-30T07:27:38;24.33;;;11.10;;
67762;SDS011;54566;52.022;5.582;2023-08-30T07:30:05;20.35;;;10.40;;
67762;SDS011;54566;52.022;5.582;2023-08-30T07:32:31;16.52;;;9.77;;
67762;SDS011;54566;52.022;5.582;2023-08-30T07:34:57;18.58;;;10.25;;
67762;SDS011;54566;52.022;5.582;2023-08-30T07:37:23;16.05;;;9.65;;
67762;SDS011;54566;52.022;5.582;2023-08-30T07:39:50;15.77;;;10.35;;
67762;SDS011;54566;52.022;5.582;2023-08-30T07:42:17;24.42;;;10.05;;
67762;SDS011;54566;52.022;5.582;2023-08-30T07:44:43;16.00;;;10.10;;
67762;SDS011;54566;52.022;5.582;2023-08-30T07:47:09;21.25;;;9.77;;
67762;SDS011;54566;52.022;5.582;2023-08-30T07:49:35;15.23;;;8.82;;
67762;SDS011;54566;52.022;5.582;2023-08-30T07:52:01;16.63;;;9.75;;
67762;SDS011;54566;52.022;5.582;2023-08-30T07:54:27;16.17;;;8.65;;
67762;SDS011;54566;52.022;5.582;2023-08-30T07:56:53;21.73;;;8.88;;
67762;SDS011;54566;52.022;5.582;2023-08-30T07:59:19;17.25;;;8.48;;
67762;SDS011;54566;52.022;5.582;2023-08-30T08:01:46;16.33;;;8.73;;
67762;SDS011;54566;52.022;5.582;2023-08-30T08:04:12;20.05;;;8.38;;
67762;SDS011;54566;52.022;5.582;2023-08-30T08:06:38;15.77;;;9.10;;
67762;SDS011;54566;52.022;5.582;2023-08-30T08:09:04;13.07;;;8.38;;
67762;SDS011;54566;52.022;5.582;2023-08-30T08:11:32;13.65;;;8.65;;
67762;SDS011;54566;52.022;5.582;2023-08-30T08:13:58;14.85;;;8.38;;
67762;SDS011;54566;52.022;5.582;2023-08-30T08:16:24;16.48;;;8.38;;
67762;SDS011;54566;52.022;5.582;2023-08-30T08:18:50;15.90;;;8.15;;
67762;SDS011;54566;52.022;5.582;2023-08-30T08:21:17;16.08;;;8.23;;
67762;SDS011;54566;52.022;5.582;2023-08-30T08:23:43;14.88;;;8.40;;
67762;SDS011;54566;52.022;5.582;2023-08-30T08:26:09;15.65;;;8.32;;
67762;SDS011;54566;52.022;5.582;2023-08-30T08:28:35;13.88;;;8.02;;
67762;SDS011;54566;52.022;5.582;2023-08-30T08:31:01;16.90;;;8.25;;
67762;SDS011;54566;52.022;5.582;2023-08-30T08:33:27;14.65;;;7.32;;
67762;SDS011;54566;52.022;5.582;2023-08-30T08:35:54;12.35;;;6.95;;
67762;SDS011;54566;52.022;5.582;2023-08-30T08:38:20;17.30;;;7.47;;
67762;SDS011;54566;52.022;5.582;2023-08-30T08:40:46;12.23;;;7.70;;
67762;SDS011;54566;52.022;5.582;2023-08-30T08:43:15;14.00;;;8.15;;
67762;SDS011;54566;52.022;5.582;2023-08-30T08:45:42;14.07;;;7.70;;
67762;SDS011;54566;52.022;5.582;2023-08-30T08:48:09;14.38;;;7.93;;
67762;SDS011;54566;52.022;5.582;2023-08-30T08:50:36;14.93;;;8.40;;
67762;SDS011;54566;52.022;5.582;2023-08-30T08:53:02;13.27;;;8.40;;
67762;SDS011;54566;52.022;5.582;2023-08-30T08:55:29;17.95;;;8.73;;
67762;SDS011;54566;52.022;5.582;2023-08-30T08:57:56;12.55;;;8.25;;
67762;SDS011;54566;52.022;5.582;2023-08-30T09:00:23;20.25;;;8.32;;
67762;SDS011;54566;52.022;5.582;2023-08-30T09:02:49;13.57;;;8.65;;
67762;SDS011;54566;52.022;5.582;2023-08-30T09:05:17;15.75;;;8.98;;
67762;SDS011;54566;52.022;5.582;2023-08-30T09:07:44;12.10;;;7.80;;
67762;SDS011;54566;52.022;5.582;2023-08-30T09:10:10;18.00;;;8.57;;
67762;SDS011;54566;52.022;5.582;2023-08-30T09:12:36;15.13;;;8.50;;
67762;SDS011;54566;52.022;5.582;2023-08-30T09:15:02;11.88;;;7.60;;
67762;SDS011;54566;52.022;5.582;2023-08-30T09:17:38;11.18;;;7.90;;
67762;SDS011;54566;52.022;5.582;2023-08-30T09:20:08;11.35;;;7.68;;
67762;SDS011;54566;52.022;5.582;2023-08-30T09:22:41;14.75;;;9.52;;
67762;SDS011;54566;52.022;5.582;2023-08-30T09:25:10;10.77;;;7.53;;
67762;SDS011;54566;52.022;5.582;2023-08-30T09:27:36;12.55;;;8.40;;
67762;SDS011;54566;52.022;5.582;2023-08-30T09:30:04;10.10;;;7.47;;
67762;SDS011;54566;52.022;5.582;2023-08-30T09:32:30;15.25;;;7.50;;
67762;SDS011;54566;52.022;5.582;2023-08-30T09:34:56;13.15;;;7.15;;
67762;SDS011;54566;52.022;5.582;2023-08-30T09:37:23;15.25;;;9.10;;
67762;SDS011;54566;52.022;5.582;2023-08-30T09:39:49;13.25;;;7.45;;
67762;SDS011;54566;52.022;5.582;2023-08-30T09:42:16;9.63;;;6.78;;
67762;SDS011;54566;52.022;5.582;2023-08-30T09:44:45;10.60;;;6.97;;
67762;SDS011;54566;52.022;5.582;2023-08-30T09:47:12;10.00;;;6.43;;
67762;SDS011;54566;52.022;5.582;2023-08-30T09:49:43;9.17;;;6.90;;
67762;SDS011;54566;52.022;5.582;2023-08-30T09:52:14;8.55;;;6.40;;
67762;SDS011;54566;52.022;5.582;2023-08-30T09:54:41;11.17;;;6.87;;
67762;SDS011;54566;52.022;5.582;2023-08-30T09:57:09;11.85;;;7.43;;
67762;SDS011;54566;52.022;5.582;2023-08-30T09:59:37;10.38;;;7.38;;
67762;SDS011;54566;52.022;5.582;2023-08-30T10:02:05;10.43;;;7.53;;
67762;SDS011;54566;52.022;5.582;2023-08-30T10:04:31;10.98;;;7.70;;
67762;SDS011;54566;52.022;5.582;2023-08-30T10:06:58;12.52;;;9.20;;
67762;SDS011;54566;52.022;5.582;2023-08-30T10:09:24;12.10;;;8.77;;
67762;SDS011;54566;52.022;5.582;2023-08-30T10:11:50;13.10;;;8.30;;
67762;SDS011;54566;52.022;5.582;2023-08-30T10:14:16;14.95;;;9.02;;
67762;SDS011;54566;52.022;5.582;2023-08-30T10:16:43;12.80;;;8.77;;
67762;SDS011;54566;52.022;5.582;2023-08-30T10:19:30;12.43;;;8.68;;
67762;SDS011;54566;52.022;5.582;2023-08-30T10:22:01;13.20;;;9.13;;
67762;SDS011;54566;52.022;5.582;2023-08-30T10:24:32;11.85;;;8.93;;
67762;SDS011;54566;52.022;5.582;2023-08-30T10:26:59;10.20;;;9.05;;
67762;SDS011;54566;52.022;5.582;2023-08-30T10:29:26;10.13;;;9.00;;
67762;SDS011;54566;52.022;5.582;2023-08-30T10:31:53;11.85;;;8.52;;
67762;SDS011;54566;52.022;5.582;2023-08-30T10:34:19;12.05;;;9.57;;
67762;SDS011;54566;52.022;5.582;2023-08-30T10:36:55;11.97;;;8.40;;
67762;SDS011;54566;52.022;5.582;2023-08-30T10:39:41;11.43;;;9.05;;
67762;SDS011;54566;52.022;5.582;2023-08-30T10:42:08;11.52;;;7.93;;
67762;SDS011;54566;52.022;5.582;2023-08-30T10:44:46;8.95;;;7.97;;
67762;SDS011;54566;52.022;5.582;2023-08-30T10:47:20;6.93;;;6.07;;
67762;SDS011;54566;52.022;5.582;2023-08-30T10:49:47;8.23;;;7.00;;
67762;SDS011;54566;52.022;5.582;2023-08-30T10:52:14;7.60;;;6.75;;
67762;SDS011;54566;52.022;5.582;2023-08-30T10:54:40;9.68;;;6.13;;
67762;SDS011;54566;52.022;5.582;2023-08-30T10:57:14;7.03;;;5.80;;
67762;SDS011;54566;52.022;5.582;2023-08-30T10:59:47;9.68;;;6.05;;
67762;SDS011;54566;52.022;5.582;2023-08-30T11:02:13;12.25;;;5.80;;
67762;SDS011;54566;52.022;5.582;2023-08-30T11:04:39;6.70;;;5.38;;
67762;SDS011;54566;52.022;5.582;2023-08-30T11:07:08;5.88;;;4.85;;
67762;SDS011;54566;52.022;5.582;2023-08-30T11:09:36;7.45;;;4.20;;
67762;SDS011;54566;52.022;5.582;2023-08-30T11:12:06;5.95;;;4.63;;
67762;SDS011;54566;52.022;5.582;2023-08-30T11:14:32;5.65;;;4.10;;
67762;SDS011;54566;52.022;5.582;2023-08-30T11:19:28;6.30;;;3.88;;
67762;SDS011;54566;52.022;5.582;2023-08-30T11:22:00;6.97;;;3.70;;
67762;SDS011;54566;52.022;5.582;2023-08-30T11:24:26;7.05;;;3.85;;
67762;SDS011;54566;52.022;5.582;2023-08-30T11:26:54;7.03;;;3.67;;
67762;SDS011;54566;52.022;5.582;2023-08-30T11:29:20;9.63;;;3.88;;
67762;SDS011;54566;52.022;5.582;2023-08-30T11:31:49;7.95;;;3.85;;
67762;SDS011;54566;52.022;5.582;2023-08-30T11:34:15;3.33;;;2.83;;
67762;SDS011;54566;52.022;5.582;2023-08-30T11:36:48;9.65;;;2.80;;
67762;SDS011;54566;52.022;5.582;2023-08-30T11:39:18;4.10;;;2.40;;
67762;SDS011;54566;52.022;5.582;2023-08-30T11:41:44;6.82;;;2.70;;
67762;SDS011;54566;52.022;5.582;2023-08-30T11:44:10;9.65;;;3.33;;
67762;SDS011;54566;52.022;5.582;2023-08-30T11:46:36;8.68;;;2.70;;
67762;SDS011;54566;52.022;5.582;2023-08-30T11:49:12;6.60;;;2.30;;
67762;SDS011;54566;52.022;5.582;2023-08-30T11:51:41;6.82;;;2.40;;
67762;SDS011;54566;52.022;5.582;2023-08-30T11:54:07;8.65;;;2.33;;
67762;SDS011;54566;52.022;5.582;2023-08-30T11:56:34;11.30;;;2.58;;
67762;SDS011;54566;52.022;5.582;2023-08-30T11:59:00;9.60;;;2.70;;
67762;SDS011;54566;52.022;5.582;2023-08-30T12:01:29;8.63;;;2.70;;
67762;SDS011;54566;52.022;5.582;2023-08-30T12:03:58;9.10;;;2.95;;
67762;SDS011;54566;52.022;5.582;2023-08-30T12:06:52;7.13;;;2.30;;
67762;SDS011;54566;52.022;5.582;2023-08-30T12:09:18;8.43;;;2.65;;
67762;SDS011;54566;52.022;5.582;2023-08-30T12:11:48;10.15;;;2.47;;
67762;SDS011;54566;52.022;5.582;2023-08-30T12:14:15;10.52;;;2.58;;
67762;SDS011;54566;52.022;5.582;2023-08-30T12:16:50;12.25;;;2.92;;
67762;SDS011;54566;52.022;5.582;2023-08-30T12:25:43;8.20;;;2.40;;
67762;SDS011;54566;52.022;5.582;2023-08-30T12:28:39;9.73;;;2.70;;
67762;SDS011;54566;52.022;5.582;2023-08-30T12:31:09;9.32;;;2.38;;
67762;SDS011;54566;52.022;5.582;2023-08-30T12:33:36;11.98;;;2.78;;
67762;SDS011;54566;52.022;5.582;2023-08-30T12:36:10;11.00;;;2.10;;
67762;SDS011;54566;52.022;5.582;2023-08-30T12:38:36;9.48;;;2.70;;
67762;SDS011;54566;52.022;5.582;2023-08-30T12:41:05;9.95;;;2.17;;
67762;SDS011;54566;52.022;5.582;2023-08-30T12:46:28;9.90;;;2.55;;
67762;SDS011;54566;52.022;5.582;2023-08-30T12:54:53;15.73;;;2.38;;
67762;SDS011;54566;52.022;5.582;2023-08-30T12:57:19;9.02;;;2.83;;
67762;SDS011;54566;52.022;5.582;2023-08-30T12:59:45;12.27;;;2.10;;
67762;SDS011;54566;52.022;5.582;2023-08-30T13:02:18;11.80;;;2.40;;
67762;SDS011;54566;52.022;5.582;2023-08-30T13:04:49;11.98;;;2.65;;
67762;SDS011;54566;52.022;5.582;2023-08-30T13:07:18;12.40;;;2.78;;
67762;SDS011;54566;52.022;5.582;2023-08-30T13:09:47;13.15;;;3.15;;
67762;SDS011;54566;52.022;5.582;2023-08-30T13:12:13;14.27;;;2.80;;
67762;SDS011;54566;52.022;5.582;2023-08-30T13:14:46;9.10;;;2.88;;
67762;SDS011;54566;52.022;5.582;2023-08-30T13:17:22;13.65;;;2.70;;
67762;SDS011;54566;52.022;5.582;2023-08-30T13:20:01;9.43;;;2.50;;
67762;SDS011;54566;52.022;5.582;2023-08-30T13:22:28;9.32;;;2.53;;
67762;SDS011;54566;52.022;5.582;2023-08-30T13:24:59;11.88;;;2.60;;
67762;SDS011;54566;52.022;5.582;2023-08-30T13:27:25;11.82;;;2.22;;
67762;SDS011;54566;52.022;5.582;2023-08-30T13:29:51;9.02;;;2.10;;
67762;SDS011;54566;52.022;5.582;2023-08-30T13:32:17;9.70;;;2.38;;
67762;SDS011;54566;52.022;5.582;2023-08-30T13:34:43;10.57;;;2.28;;
67762;SDS011;54566;52.022;5.582;2023-08-30T13:37:12;12.80;;;2.38;;
67762;SDS011;54566;52.022;5.582;2023-08-30T13:39:39;10.05;;;2.33;;
67762;SDS011;54566;52.022;5.582;2023-08-30T13:42:05;10.38;;;2.42;;
67762;SDS011;54566;52.022;5.582;2023-08-30T13:44:46;8.90;;;2.00;;
67762;SDS011;54566;52.022;5.582;2023-08-30T13:47:14;9.13;;;2.08;;
67762;SDS011;54566;52.022;5.582;2023-08-30T13:49:41;10.83;;;2.13;;
67762;SDS011;54566;52.022;5.582;2023-08-30T13:52:07;8.48;;;2.10;;
67762;SDS011;54566;52.022;5.582;2023-08-30T13:54:33;7.65;;;2.17;;
67762;SDS011;54566;52.022;5.582;2023-08-30T13:56:59;9.20;;;2.30;;
67762;SDS011;54566;52.022;5.582;2023-08-30T13:59:25;9.73;;;1.90;;
67762;SDS011;54566;52.022;5.582;2023-08-30T14:01:55;9.63;;;2.33;;
67762;SDS011;54566;52.022;5.582;2023-08-30T14:04:23;7.22;;;2.03;;
67762;SDS011;54566;52.022;5.582;2023-08-30T14:07:00;7.82;;;1.85;;
67762;SDS011;54566;52.022;5.582;2023-08-30T14:09:29;9.93;;;2.00;;
67762;SDS011;54566;52.022;5.582;2023-08-30T14:12:06;8.68;;;2.03;;
67762;SDS011;54566;52.022;5.582;2023-08-30T14:14:43;9.52;;;2.17;;
67762;SDS011;54566;52.022;5.582;2023-08-30T14:17:15;11.98;;;2.05;;
67762;SDS011;54566;52.022;5.582;2023-08-30T14:19:42;9.93;;;2.20;;
67762;SDS011;54566;52.022;5.582;2023-08-30T14:22:14;10.45;;;2.30;;
67762;SDS011;54566;52.022;5.582;2023-08-30T14:24:53;8.05;;;1.60;;
67762;SDS011;54566;52.022;5.582;2023-08-30T14:30:11;17.55;;;3.03;;
67762;SDS011;54566;52.022;5.582;2023-08-30T14:32:45;14.18;;;2.85;;
67762;SDS011;54566;52.022;5.582;2023-08-30T14:35:31;7.20;;;2.45;;
67762;SDS011;54566;52.022;5.582;2023-08-30T14:38:05;9.93;;;2.10;;
67762;SDS011;54566;52.022;5.582;2023-08-30T14:40:53;4.35;;;1.50;;
67762;SDS011;54566;52.022;5.582;2023-08-30T14:43:25;10.55;;;1.88;;
67762;SDS011;54566;52.022;5.582;2023-08-30T14:46:04;6.55;;;1.60;;
67762;SDS011;54566;52.022;5.582;2023-08-30T14:48:34;11.75;;;1.80;;
67762;SDS011;54566;52.022;5.582;2023-08-30T14:51:04;15.23;;;1.92;;
67762;SDS011;54566;52.022;5.582;2023-08-30T14:53:38;11.18;;;1.60;;
67762;SDS011;54566;52.022;5.582;2023-08-30T14:56:06;4.70;;;2.38;;
67762;SDS011;54566;52.022;5.582;2023-08-30T14:58:42;3.10;;;1.20;;
67762;SDS011;54566;52.022;5.582;2023-08-30T15:07:10;6.18;;;1.30;;
67762;SDS011;54566;52.022;5.582;2023-08-30T15:10:00;8.02;;;1.52;;
67762;SDS011;54566;52.022;5.582;2023-08-30T15:12:39;5.68;;;1.67;;
67762;SDS011;54566;52.022;5.582;2023-08-30T15:15:14;6.72;;;1.50;;
67762;SDS011;54566;52.022;5.582;2023-08-30T15:17:42;5.00;;;1.60;;